Time;durP1;ratioP1;P1;durP2;ratioP2;P2;SDS_P1;SDS_P2;PMS_P1;PMS_P2;Temp;Humidity;BMP_temperature;BMP_pressure;BME280_temperature;BME280_humidity;BME280_pressure;Samples;Min_cycle;Max_cycle;Signal;HPM_P1;HPM_P2
2022/10/17 00:00:22;;;;;;;10.07;4.95;;;;;;;;;;4983151;28;20042;-70
2022/10/17 00:02:48;;;;;;;11.13;5.10;;;;;;;;;;4986942;28;20517;-67
2022/10/17 00:05:16;;;;;;;6.85;4.43;;;;;;;;;;4985186;28;20116;-68
2022/10/17 00:07:41;;;;;;;7.50;4.93;;;;;;;;;;4990403;28;20560;-68
2022/10/17 00:10:08;;;;;;;8.45;4.55;;;;;;;;;;4984367;28;20038;-68
2022/10/17 00:12:33;;;;;;;10.73;5.15;;;;;;;;;;4985430;28;20700;-68
2022/10/17 00:14:59;;;;;;;11.75;4.00;;;;;;;;;;4991039;28;20146;-69
2022/10/17 00:17:25;;;;;;;6.45;4.38;;;;;;;;;;4988309;28;20429;-68
2022/10/17 00:19:50;;;;;;;8.18;3.90;;;;;;;;;;4983340;28;20038;-68
2022/10/17 00:22:18;;;;;;;8.88;4.47;;;;;;;;;;4983750;28;20050;-68
2022/10/17 00:24:44;;;;;;;7.40;4.40;;;;;;;;;;4986548;28;20035;-69
2022/10/17 00:27:09;;;;;;;9.82;4.43;;;;;;;;;;4986121;28;20169;-66
2022/10/17 00:29:34;;;;;;;9.45;4.13;;;;;;;;;;4985050;28;20037;-68
2022/10/17 00:32:00;;;;;;;17.10;4.10;;;;;;;;;;4978016;28;20378;-71
2022/10/17 00:34:28;;;;;;;9.88;3.63;;;;;;;;;;4980990;28;20068;-68
2022/10/17 00:36:53;;;;;;;11.65;3.90;;;;;;;;;;4987701;28;20056;-67
2022/10/17 00:39:19;;;;;;;6.90;3.65;;;;;;;;;;4983891;28;20030;-68
2022/10/17 00:41:45;;;;;;;5.38;3.30;;;;;;;;;;4989895;28;20109;-69
2022/10/17 00:44:29;;;;;;;10.88;3.95;;;;;;;;;;4984784;28;20486;-66
2022/10/17 00:47:00;;;;;;;6.93;4.40;;;;;;;;;;4984512;28;20042;-67
2022/10/17 00:49:29;;;;;;;10.60;4.13;;;;;;;;;;4982348;28;20540;-69
2022/10/17 00:51:57;;;;;;;9.40;3.83;;;;;;;;;;4986488;28;20589;-68
2022/10/17 00:54:29;;;;;;;13.52;3.83;;;;;;;;;;4985323;28;20073;-67
2022/10/17 00:56:57;;;;;;;8.45;3.67;;;;;;;;;;4987254;28;20038;-68
2022/10/17 00:59:27;;;;;;;8.57;3.88;;;;;;;;;;4991318;28;20063;-67
2022/10/17 01:02:03;;;;;;;10.90;3.70;;;;;;;;;;4988035;28;20042;-70
2022/10/17 01:04:28;;;;;;;8.27;3.67;;;;;;;;;;4989901;28;20442;-70
2022/10/17 01:06:54;;;;;;;8.80;4.40;;;;;;;;;;4989496;28;20034;-69
2022/10/17 01:09:19;;;;;;;6.85;3.63;;;;;;;;;;4986176;28;20080;-70
2022/10/17 01:11:55;;;;;;;11.85;3.55;;;;;;;;;;4986740;28;20478;-70
2022/10/17 01:14:55;;;;;;;8.15;3.50;;;;;;;;;;4989630;28;20026;-70
2022/10/17 01:17:48;;;;;;;9.00;3.90;;;;;;;;;;4986488;28;20424;-69
2022/10/17 01:20:32;;;;;;;10.52;3.58;;;;;;;;;;4985470;28;20074;-70
2022/10/17 01:23:35;;;;;;;9.65;3.80;;;;;;;;;;4988108;28;20049;-69
2022/10/17 01:26:26;;;;;;;8.55;3.25;;;;;;;;;;4985272;28;20030;-69
2022/10/17 01:28:54;;;;;;;8.82;3.50;;;;;;;;;;4988984;28;20026;-71
2022/10/17 01:31:24;;;;;;;7.88;4.00;;;;;;;;;;4987981;28;20034;-69
2022/10/17 01:33:52;;;;;;;6.90;3.88;;;;;;;;;;4985540;28;20034;-70
2022/10/17 01:36:32;;;;;;;7.95;3.67;;;;;;;;;;4988294;28;20043;-70
2022/10/17 01:39:07;;;;;;;6.88;4.50;;;;;;;;;;4984956;28;20041;-70
2022/10/17 01:41:38;;;;;;;8.93;4.20;;;;;;;;;;4986520;28;20054;-71
2022/10/17 01:44:16;;;;;;;7.18;3.65;;;;;;;;;;5000770;28;20501;-70
2022/10/17 01:46:52;;;;;;;9.75;3.47;;;;;;;;;;4986278;28;20045;-71
2022/10/17 01:49:24;;;;;;;8.30;3.75;;;;;;;;;;4985859;28;20269;-70
2022/10/17 01:52:20;;;;;;;8.23;3.80;;;;;;;;;;4989474;28;20035;-70
2022/10/17 01:54:55;;;;;;;8.93;3.65;;;;;;;;;;4983019;28;20050;-69
2022/10/17 01:57:35;;;;;;;9.68;3.88;;;;;;;;;;4984836;28;20169;-69
2022/10/17 02:00:07;;;;;;;9.43;3.92;;;;;;;;;;4988612;28;20049;-70
2022/10/17 02:02:35;;;;;;;7.70;4.03;;;;;;;;;;4987633;28;20036;-69
2022/10/17 02:05:02;;;;;;;6.85;4.53;;;;;;;;;;4987590;28;20026;-69
2022/10/17 02:07:27;;;;;;;5.90;3.78;;;;;;;;;;4988621;28;20050;-70
2022/10/17 02:09:53;;;;;;;4.60;3.67;;;;;;;;;;4989709;28;20038;-69
2022/10/17 02:12:44;;;;;;;10.10;3.40;;;;;;;;;;4985699;28;20077;-70
2022/10/17 02:15:25;;;;;;;9.88;4.00;;;;;;;;;;4987400;28;20434;-70
2022/10/17 02:18:23;;;;;;;7.07;4.03;;;;;;;;;;4983436;28;20034;-70
2022/10/17 02:20:55;;;;;;;6.10;3.40;;;;;;;;;;4984389;28;20030;-70
2022/10/17 02:23:36;;;;;;;7.63;4.05;;;;;;;;;;4988121;28;20057;-69
2022/10/17 02:26:08;;;;;;;13.10;4.03;;;;;;;;;;4987477;28;20042;-70
2022/10/17 02:28:56;;;;;;;6.30;3.50;;;;;;;;;;4985148;28;20041;-70
2022/10/17 02:31:27;;;;;;;7.38;3.60;;;;;;;;;;4988783;28;20809;-71
2022/10/17 02:34:07;;;;;;;6.88;3.70;;;;;;;;;;4989222;28;20165;-70
2022/10/17 02:36:39;;;;;;;11.52;3.28;;;;;;;;;;4992417;28;20038;-69
2022/10/17 02:39:07;;;;;;;6.10;3.40;;;;;;;;;;4988567;28;20038;-69
2022/10/17 02:41:33;;;;;;;5.43;3.88;;;;;;;;;;4986217;28;20050;-71
2022/10/17 02:44:01;;;;;;;6.10;3.47;;;;;;;;;;4989151;28;20044;-70
2022/10/17 02:46:27;;;;;;;8.85;4.15;;;;;;;;;;4983626;28;20053;-70
2022/10/17 02:49:01;;;;;;;10.85;3.70;;;;;;;;;;4982416;28;20046;-70
2022/10/17 02:51:40;;;;;;;8.90;4.00;;;;;;;;;;4984768;28;20413;-69
2022/10/17 02:54:33;;;;;;;11.63;4.05;;;;;;;;;;4984058;28;20030;-68
2022/10/17 02:57:06;;;;;;;11.50;3.65;;;;;;;;;;4980793;28;20042;-69
2022/10/17 02:59:34;;;;;;;9.68;4.22;;;;;;;;;;4986399;28;20410;-68
2022/10/17 03:02:03;;;;;;;10.38;3.53;;;;;;;;;;4991401;28;20082;-69
2022/10/17 03:04:28;;;;;;;9.68;3.85;;;;;;;;;;4991311;28;20061;-69
2022/10/17 03:06:54;;;;;;;8.68;3.75;;;;;;;;;;4988629;28;20554;-69
2022/10/17 03:09:19;;;;;;;9.18;3.70;;;;;;;;;;4992415;28;20463;-69
2022/10/17 03:11:45;;;;;;;11.90;4.07;;;;;;;;;;4993339;28;20374;-69
2022/10/17 03:14:10;;;;;;;7.03;3.80;;;;;;;;;;4995034;28;20042;-69
2022/10/17 03:16:35;;;;;;;6.70;3.60;;;;;;;;;;4994623;28;20442;-70
2022/10/17 03:19:01;;;;;;;6.57;3.15;;;;;;;;;;4989808;28;20050;-69
2022/10/17 03:21:26;;;;;;;11.93;3.42;;;;;;;;;;4988991;28;20050;-71
2022/10/17 03:23:52;;;;;;;5.75;3.10;;;;;;;;;;4994758;28;20057;-70
2022/10/17 03:26:17;;;;;;;5.90;3.25;;;;;;;;;;4990480;28;20049;-69
2022/10/17 03:28:43;;;;;;;7.90;3.72;;;;;;;;;;4986097;28;20113;-70
2022/10/17 03:31:10;;;;;;;6.75;3.83;;;;;;;;;;4986266;28;20045;-70
2022/10/17 03:33:36;;;;;;;10.40;3.95;;;;;;;;;;4986712;28;20034;-70
2022/10/17 03:36:10;;;;;;;7.05;3.78;;;;;;;;;;4987481;28;20049;-70
2022/10/17 03:38:36;;;;;;;5.95;4.05;;;;;;;;;;4992661;28;20104;-70
2022/10/17 03:41:03;;;;;;;10.43;3.70;;;;;;;;;;4990956;28;20573;-70
2022/10/17 03:43:28;;;;;;;8.68;4.20;;;;;;;;;;4991714;28;20034;-70
2022/10/17 03:45:55;;;;;;;7.25;4.25;;;;;;;;;;4991153;28;20572;-70
2022/10/17 03:48:20;;;;;;;5.15;4.05;;;;;;;;;;4989740;28;20038;-70
2022/10/17 03:50:45;;;;;;;11.75;4.15;;;;;;;;;;4992325;28;20053;-70
2022/10/17 03:53:11;;;;;;;7.45;4.03;;;;;;;;;;4994828;28;20410;-70
2022/10/17 03:55:37;;;;;;;5.28;3.85;;;;;;;;;;4994682;28;20045;-70
2022/10/17 03:58:02;;;;;;;11.23;4.15;;;;;;;;;;4990181;28;20037;-70
2022/10/17 04:00:28;;;;;;;6.18;3.80;;;;;;;;;;4987760;28;20034;-70
2022/10/17 04:02:54;;;;;;;5.32;3.80;;;;;;;;;;4989831;28;20038;-70
2022/10/17 04:05:19;;;;;;;6.53;4.60;;;;;;;;;;4992093;28;20018;-70
2022/10/17 04:07:44;;;;;;;12.02;4.68;;;;;;;;;;4991841;28;20171;-71
2022/10/17 04:10:10;;;;;;;11.75;4.55;;;;;;;;;;4991500;28;20038;-70
2022/10/17 04:12:35;;;;;;;11.65;4.43;;;;;;;;;;4986982;28;20129;-70
2022/10/17 04:15:01;;;;;;;9.18;4.28;;;;;;;;;;4990588;28;20398;-71
2022/10/17 04:17:29;;;;;;;8.13;4.38;;;;;;;;;;4987245;28;20030;-70
2022/10/17 04:19:55;;;;;;;9.15;4.30;;;;;;;;;;5001838;28;20043;-70
2022/10/17 04:22:20;;;;;;;16.30;4.13;;;;;;;;;;4985790;28;20137;-70
2022/10/17 04:24:45;;;;;;;7.70;3.80;;;;;;;;;;4990626;28;20101;-70
2022/10/17 04:27:11;;;;;;;8.95;3.50;;;;;;;;;;4980123;28;20046;-70
2022/10/17 04:29:36;;;;;;;10.55;3.70;;;;;;;;;;4986572;28;20026;-70
2022/10/17 04:32:02;;;;;;;8.18;3.85;;;;;;;;;;4987444;28;20029;-70
2022/10/17 04:34:27;;;;;;;7.57;3.45;;;;;;;;;;4996378;28;20034;-70
2022/10/17 04:36:53;;;;;;;8.02;3.97;;;;;;;;;;4992282;28;20506;-70
2022/10/17 04:39:18;;;;;;;8.77;4.22;;;;;;;;;;4987210;28;21761;-69
2022/10/17 04:41:44;;;;;;;6.60;4.20;;;;;;;;;;4991735;28;20525;-72
2022/10/17 04:44:09;;;;;;;17.30;4.03;;;;;;;;;;4986052;28;20088;-70
2022/10/17 04:46:35;;;;;;;9.98;4.47;;;;;;;;;;4994065;28;20102;-70
2022/10/17 04:49:00;;;;;;;10.25;4.90;;;;;;;;;;4991295;28;20034;-70
2022/10/17 04:51:26;;;;;;;8.18;4.53;;;;;;;;;;4994995;28;20092;-70
2022/10/17 04:53:51;;;;;;;6.70;4.38;;;;;;;;;;4991566;28;20038;-70
2022/10/17 04:56:20;;;;;;;12.25;5.20;;;;;;;;;;4994559;28;20557;-70
2022/10/17 04:58:46;;;;;;;7.25;4.15;;;;;;;;;;4993392;28;20065;-70
2022/10/17 05:01:14;;;;;;;12.43;4.75;;;;;;;;;;4991038;28;20034;-70
2022/10/17 05:03:40;;;;;;;12.27;4.50;;;;;;;;;;4992141;28;20101;-71
2022/10/17 05:06:11;;;;;;;8.93;4.47;;;;;;;;;;4988825;28;20445;-69
2022/10/17 05:08:37;;;;;;;11.77;4.30;;;;;;;;;;4994801;28;20034;-69
2022/10/17 05:11:04;;;;;;;5.40;4.10;;;;;;;;;;4992352;28;20474;-69
2022/10/17 05:13:30;;;;;;;6.75;4.18;;;;;;;;;;4992290;28;20034;-71
2022/10/17 05:16:00;;;;;;;7.18;3.80;;;;;;;;;;4991337;28;20043;-70
2022/10/17 05:18:26;;;;;;;9.35;4.00;;;;;;;;;;4992398;28;20046;-70
2022/10/17 05:20:52;;;;;;;6.70;4.80;;;;;;;;;;4994399;28;20048;-70
2022/10/17 05:23:17;;;;;;;7.10;4.32;;;;;;;;;;4995075;28;20482;-72
2022/10/17 05:25:43;;;;;;;10.38;4.60;;;;;;;;;;4991910;28;20391;-69
2022/10/17 05:28:08;;;;;;;8.85;4.20;;;;;;;;;;4994563;28;20041;-70
2022/10/17 05:30:35;;;;;;;10.23;5.32;;;;;;;;;;4991699;28;20197;-70
2022/10/17 05:33:01;;;;;;;9.35;4.63;;;;;;;;;;4992812;28;20039;-70
2022/10/17 05:35:26;;;;;;;10.25;5.03;;;;;;;;;;4997136;28;20026;-70
2022/10/17 05:37:52;;;;;;;7.97;4.78;;;;;;;;;;4991183;28;20066;-69
2022/10/17 05:40:17;;;;;;;9.57;4.70;;;;;;;;;;4990179;28;20205;-69
2022/10/17 05:42:47;;;;;;;11.10;4.82;;;;;;;;;;4993846;28;20065;-69
2022/10/17 05:45:13;;;;;;;7.22;4.75;;;;;;;;;;4992327;28;20406;-69
2022/10/17 05:47:39;;;;;;;7.45;4.50;;;;;;;;;;4992393;28;20049;-70
2022/10/17 05:50:10;;;;;;;10.65;4.55;;;;;;;;;;4992104;28;20185;-71
2022/10/17 05:52:35;;;;;;;10.25;4.55;;;;;;;;;;4990512;28;20050;-71
2022/10/17 05:55:01;;;;;;;7.00;3.90;;;;;;;;;;4991955;28;20031;-70
2022/10/17 05:57:27;;;;;;;10.65;4.32;;;;;;;;;;4996630;28;20120;-70
2022/10/17 05:59:52;;;;;;;7.80;5.22;;;;;;;;;;4991786;28;20736;-71
2022/10/17 06:02:18;;;;;;;12.05;5.72;;;;;;;;;;4985876;28;20034;-71
2022/10/17 06:04:45;;;;;;;9.73;5.00;;;;;;;;;;4982901;28;20058;-70
2022/10/17 06:07:13;;;;;;;10.77;5.90;;;;;;;;;;4991862;28;20528;-69
2022/10/17 06:09:40;;;;;;;11.00;5.30;;;;;;;;;;4986558;28;20056;-70
2022/10/17 06:12:06;;;;;;;8.57;4.65;;;;;;;;;;4995971;28;20069;-71
2022/10/17 06:14:32;;;;;;;13.13;4.88;;;;;;;;;;4988990;28;20053;-70
2022/10/17 06:16:58;;;;;;;9.35;4.80;;;;;;;;;;4996952;28;20084;-70
2022/10/17 06:19:23;;;;;;;8.45;4.50;;;;;;;;;;4993261;28;20457;-70
2022/10/17 06:21:49;;;;;;;7.32;4.63;;;;;;;;;;4991768;28;20038;-70
2022/10/17 06:24:14;;;;;;;8.25;4.72;;;;;;;;;;4988977;28;20042;-69
2022/10/17 06:26:40;;;;;;;7.45;4.78;;;;;;;;;;4988586;28;20105;-70
2022/10/17 06:29:05;;;;;;;14.32;5.15;;;;;;;;;;4991112;28;20038;-70
2022/10/17 06:31:30;;;;;;;9.32;4.45;;;;;;;;;;4991196;28;20034;-69
2022/10/17 06:33:56;;;;;;;8.43;4.53;;;;;;;;;;4993522;28;20042;-69
2022/10/17 06:36:21;;;;;;;12.95;5.95;;;;;;;;;;4989637;28;21113;-70
2022/10/17 06:38:47;;;;;;;13.48;6.72;;;;;;;;;;4985257;28;20121;-68
2022/10/17 06:41:14;;;;;;;15.88;6.25;;;;;;;;;;4983717;28;20042;-70
2022/10/17 06:43:42;;;;;;;10.30;5.22;;;;;;;;;;4991615;28;20038;-70
2022/10/17 06:46:07;;;;;;;11.82;5.28;;;;;;;;;;4991407;28;20402;-71
2022/10/17 06:48:33;;;;;;;12.73;5.55;;;;;;;;;;4988389;28;20045;-70
2022/10/17 06:51:03;;;;;;;7.60;5.03;;;;;;;;;;4989631;28;20062;-69
2022/10/17 06:53:29;;;;;;;11.52;5.57;;;;;;;;;;4985869;28;20449;-68
2022/10/17 06:56:00;;;;;;;10.20;5.40;;;;;;;;;;4996661;28;20087;-68
2022/10/17 06:58:27;;;;;;;10.65;4.68;;;;;;;;;;4990704;28;20038;-69
2022/10/17 07:00:57;;;;;;;11.90;5.43;;;;;;;;;;4992499;28;20038;-69
2022/10/17 07:03:29;;;;;;;10.35;4.80;;;;;;;;;;4983313;28;20049;-69
2022/10/17 07:06:01;;;;;;;10.35;5.57;;;;;;;;;;4986178;28;20037;-70
2022/10/17 07:08:26;;;;;;;8.98;5.45;;;;;;;;;;4991162;28;20038;-70
2022/10/17 07:10:52;;;;;;;16.63;5.00;;;;;;;;;;4990726;28;20116;-70
2022/10/17 07:13:18;;;;;;;10.05;5.10;;;;;;;;;;4989248;28;20069;-70
2022/10/17 07:15:44;;;;;;;11.73;6.32;;;;;;;;;;4988809;28;20519;-70
2022/10/17 07:18:10;;;;;;;9.18;5.32;;;;;;;;;;4995252;28;20053;-70
2022/10/17 07:20:36;;;;;;;10.82;5.75;;;;;;;;;;4987946;28;20026;-69
2022/10/17 07:23:03;;;;;;;12.10;5.82;;;;;;;;;;4992208;28;20037;-71
2022/10/17 07:25:29;;;;;;;9.48;5.38;;;;;;;;;;4988245;28;20073;-69
2022/10/17 07:27:57;;;;;;;6.97;4.45;;;;;;;;;;4992520;28;20070;-68
2022/10/17 07:30:23;;;;;;;11.93;5.55;;;;;;;;;;4984940;28;20042;-71
2022/10/17 07:32:52;;;;;;;17.65;5.18;;;;;;;;;;4990405;28;20415;-70
2022/10/17 07:35:18;;;;;;;15.73;6.85;;;;;;;;;;4990561;28;20037;-70
2022/10/17 07:37:43;;;;;;;10.27;5.28;;;;;;;;;;4991349;28;20054;-70
2022/10/17 07:40:09;;;;;;;11.38;5.65;;;;;;;;;;4986088;28;20100;-69
2022/10/17 07:42:35;;;;;;;10.00;5.95;;;;;;;;;;4990254;28;20490;-69
2022/10/17 07:45:01;;;;;;;15.88;5.65;;;;;;;;;;4985533;28;20065;-70
2022/10/17 07:47:29;;;;;;;8.80;5.55;;;;;;;;;;4987072;28;20027;-69
2022/10/17 07:49:55;;;;;;;15.65;5.93;;;;;;;;;;4987620;28;20030;-70
2022/10/17 07:52:20;;;;;;;22.30;6.38;;;;;;;;;;4992218;28;20045;-68
2022/10/17 07:54:46;;;;;;;16.65;6.30;;;;;;;;;;4991588;28;20042;-69
2022/10/17 07:57:11;;;;;;;12.10;5.72;;;;;;;;;;4992590;28;20063;-69
2022/10/17 07:59:37;;;;;;;15.13;6.25;;;;;;;;;;4991827;28;22133;-70
2022/10/17 08:02:05;;;;;;;13.20;6.10;;;;;;;;;;4989510;28;20562;-71
2022/10/17 08:04:32;;;;;;;15.32;5.95;;;;;;;;;;4988018;28;20041;-70
2022/10/17 08:06:59;;;;;;;14.63;5.85;;;;;;;;;;4985642;28;20491;-70
2022/10/17 08:09:24;;;;;;;14.15;5.78;;;;;;;;;;5003250;28;20039;-70
2022/10/17 08:11:50;;;;;;;13.27;5.25;;;;;;;;;;4988670;28;20041;-70
2022/10/17 08:14:15;;;;;;;12.27;5.05;;;;;;;;;;4990490;28;20030;-69
2022/10/17 08:16:41;;;;;;;11.70;5.78;;;;;;;;;;4988406;28;20121;-70
2022/10/17 08:19:07;;;;;;;14.65;6.40;;;;;;;;;;4992269;28;20046;-70
2022/10/17 08:21:33;;;;;;;9.80;5.68;;;;;;;;;;4988103;28;20126;-69
2022/10/17 08:24:01;;;;;;;11.80;5.32;;;;;;;;;;4984838;28;20416;-69
2022/10/17 08:26:27;;;;;;;8.95;5.50;;;;;;;;;;4990352;28;20030;-70
2022/10/17 08:28:52;;;;;;;9.38;5.65;;;;;;;;;;4990403;28;20383;-71
2022/10/17 08:31:19;;;;;;;11.23;5.88;;;;;;;;;;4986251;28;20045;-70
2022/10/17 08:33:46;;;;;;;18.02;6.90;;;;;;;;;;4991172;28;20153;-69
2022/10/17 08:36:14;;;;;;;9.60;5.20;;;;;;;;;;4981007;28;20160;-69
2022/10/17 08:38:41;;;;;;;17.02;5.50;;;;;;;;;;4985900;28;20022;-69
2022/10/17 08:41:46;;;;;;;7.38;5.03;;;;;;;;;;4989365;28;20387;-70
2022/10/17 08:44:11;;;;;;;10.15;4.78;;;;;;;;;;4987468;28;20530;-73
2022/10/17 08:46:40;;;;;;;13.82;4.82;;;;;;;;;;4988432;28;20026;-69
2022/10/17 08:49:13;;;;;;;10.93;5.07;;;;;;;;;;4981886;28;20498;-69
2022/10/17 08:51:48;;;;;;;13.30;4.55;;;;;;;;;;4987752;28;20042;-69
2022/10/17 08:54:19;;;;;;;10.00;4.43;;;;;;;;;;4989548;28;20498;-70
2022/10/17 08:56:48;;;;;;;9.00;4.13;;;;;;;;;;4990871;28;20026;-70
2022/10/17 08:59:17;;;;;;;11.70;4.47;;;;;;;;;;4985416;28;20026;-70
2022/10/17 09:01:51;;;;;;;9.80;5.18;;;;;;;;;;4982161;28;20754;-69
2022/10/17 09:04:52;;;;;;;11.77;4.70;;;;;;;;;;4983714;28;20117;-69
2022/10/17 09:07:40;;;;;;;13.45;4.40;;;;;;;;;;4981237;28;20047;-69
2022/10/17 09:10:31;;;;;;;15.95;4.65;;;;;;;;;;4984171;28;20411;-69
2022/10/17 09:13:17;;;;;;;13.27;5.20;;;;;;;;;;4989430;28;20031;-69
2022/10/17 09:16:12;;;;;;;11.10;5.22;;;;;;;;;;4989721;28;20038;-69
2022/10/17 09:18:46;;;;;;;11.68;5.55;;;;;;;;;;4954684;28;20037;-69
2022/10/17 09:21:26;;;;;;;9.43;5.38;;;;;;;;;;4991398;28;20063;-69
2022/10/17 09:23:56;;;;;;;15.68;6.00;;;;;;;;;;4994331;28;20125;-69
2022/10/17 09:26:24;;;;;;;14.00;6.15;;;;;;;;;;4996038;28;20042;-69
2022/10/17 09:29:12;;;;;;;13.55;5.50;;;;;;;;;;4993188;28;20077;-69
2022/10/17 09:31:50;;;;;;;13.02;5.93;;;;;;;;;;4990734;28;20050;-69
2022/10/17 09:34:19;;;;;;;14.75;6.22;;;;;;;;;;4993265;28;20034;-71
2022/10/17 09:36:47;;;;;;;15.52;5.40;;;;;;;;;;4991323;28;20699;-70
2022/10/17 09:39:17;;;;;;;11.40;5.70;;;;;;;;;;4991854;28;20031;-70
2022/10/17 09:41:47;;;;;;;13.32;4.57;;;;;;;;;;4993191;28;20496;-69
2022/10/17 09:44:23;;;;;;;10.98;4.35;;;;;;;;;;4991701;28;20030;-70
2022/10/17 09:47:27;;;;;;;7.40;3.78;;;;;;;;;;4990448;28;20043;-71
2022/10/17 09:49:52;;;;;;;11.13;3.70;;;;;;;;;;4996443;28;20545;-70
2022/10/17 09:52:29;;;;;;;9.55;3.55;;;;;;;;;;4995356;28;20046;-68
2022/10/17 09:55:19;;;;;;;8.50;3.65;;;;;;;;;;4992222;28;20037;-71
2022/10/17 09:57:54;;;;;;;10.57;4.32;;;;;;;;;;4991716;28;20122;-70
2022/10/17 10:00:23;;;;;;;8.02;4.13;;;;;;;;;;4990477;28;20034;-70
2022/10/17 10:02:48;;;;;;;10.52;4.30;;;;;;;;;;4991318;28;20546;-69
2022/10/17 10:05:17;;;;;;;9.98;4.13;;;;;;;;;;4993405;28;20097;-69
2022/10/17 10:08:01;;;;;;;5.93;3.35;;;;;;;;;;4992710;28;20073;-69
2022/10/17 10:10:29;;;;;;;8.63;3.63;;;;;;;;;;4986163;28;20037;-69
2022/10/17 10:13:14;;;;;;;12.95;3.60;;;;;;;;;;4984128;28;20056;-70
2022/10/17 10:15:40;;;;;;;9.50;4.13;;;;;;;;;;4990218;28;20043;-69
2022/10/17 10:18:23;;;;;;;4.85;3.40;;;;;;;;;;4991048;28;20046;-70
2022/10/17 10:21:07;;;;;;;6.18;3.33;;;;;;;;;;4985766;28;20464;-71
2022/10/17 10:23:33;;;;;;;9.68;3.40;;;;;;;;;;4993835;28;20398;-70
2022/10/17 10:26:02;;;;;;;12.02;3.70;;;;;;;;;;4985504;28;20091;-70
2022/10/17 10:28:31;;;;;;;10.15;3.65;;;;;;;;;;4992158;28;20108;-70
2022/10/17 10:30:59;;;;;;;7.47;3.42;;;;;;;;;;4988230;28;20041;-71
2022/10/17 10:33:27;;;;;;;8.02;3.78;;;;;;;;;;4984489;28;20096;-71
2022/10/17 10:36:02;;;;;;;5.95;3.33;;;;;;;;;;4994301;28;20046;-70
2022/10/17 10:38:29;;;;;;;8.80;3.70;;;;;;;;;;4990738;28;20105;-70
2022/10/17 10:41:06;;;;;;;9.68;3.70;;;;;;;;;;4992083;28;20506;-69
2022/10/17 10:43:39;;;;;;;9.80;3.60;;;;;;;;;;4989651;28;20603;-69
2022/10/17 10:46:18;;;;;;;6.95;3.55;;;;;;;;;;4989834;28;20041;-70
2022/10/17 10:48:59;;;;;;;10.30;3.13;;;;;;;;;;4984071;28;20074;-69
2022/10/17 10:51:37;;;;;;;7.78;3.20;;;;;;;;;;4987860;28;20035;-70
2022/10/17 10:54:32;;;;;;;15.07;3.78;;;;;;;;;;4978799;28;20039;-70
2022/10/17 10:57:02;;;;;;;7.70;2.90;;;;;;;;;;4983336;28;20117;-70
2022/10/17 10:59:34;;;;;;;7.28;2.90;;;;;;;;;;4990181;28;20509;-70
2022/10/17 11:02:09;;;;;;;;;;;;;;;;;;4988431;28;20038;-68
2022/10/17 11:04:50;;;;;;;12.13;3.25;;;;;;;;;;4990152;28;19922;-72
2022/10/17 11:07:23;;;;;;;6.25;3.47;;;;;;;;;;4988638;28;20038;-71
2022/10/17 11:10:19;;;;;;;8.70;3.78;;;;;;;;;;4986436;28;20034;-71
2022/10/17 11:12:56;;;;;;;10.73;3.10;;;;;;;;;;4989384;28;20129;-72
2022/10/17 11:15:34;;;;;;;5.65;3.10;;;;;;;;;;4988331;28;20742;-72
2022/10/17 11:18:03;;;;;;;8.40;3.38;;;;;;;;;;4990220;28;20054;-71
2022/10/17 11:21:03;;;;;;;10.93;3.17;;;;;;;;;;4988489;28;20094;-70
2022/10/17 11:23:47;;;;;;;8.32;3.25;;;;;;;;;;4990524;28;20030;-70
2022/10/17 11:26:27;;;;;;;8.45;3.55;;;;;;;;;;4989362;28;20045;-71
2022/10/17 11:28:57;;;;;;;8.27;3.00;;;;;;;;;;4987586;28;20137;-71
2022/10/17 11:31:28;;;;;;;8.40;3.60;;;;;;;;;;4991060;28;20050;-71
2022/10/17 11:34:09;;;;;;;9.55;3.28;;;;;;;;;;4991028;28;20042;-71
2022/10/17 11:36:40;;;;;;;12.25;3.30;;;;;;;;;;4988445;28;20516;-71
2022/10/17 11:39:14;;;;;;;4.97;2.70;;;;;;;;;;4989540;28;20112;-71
2022/10/17 11:41:56;;;;;;;4.95;2.70;;;;;;;;;;4989375;28;20041;-71
2022/10/17 11:44:38;;;;;;;7.43;3.10;;;;;;;;;;4985507;28;20054;-71
2022/10/17 11:47:13;;;;;;;8.70;2.95;;;;;;;;;;4978992;28;20046;-71
2022/10/17 11:49:50;;;;;;;9.07;2.70;;;;;;;;;;4986225;28;20045;-70
2022/10/17 11:52:49;;;;;;;6.10;2.35;;;;;;;;;;4984159;28;20045;-71
2022/10/17 11:55:22;;;;;;;7.80;2.55;;;;;;;;;;4982001;28;20502;-71
2022/10/17 11:57:50;;;;;;;6.90;2.53;;;;;;;;;;4986184;28;20034;-71
2022/10/17 12:00:41;;;;;;;5.53;2.40;;;;;;;;;;4989498;28;20121;-70
2022/10/17 12:03:12;;;;;;;3.05;2.17;;;;;;;;;;4988662;28;20038;-71
2022/10/17 12:06:19;;;;;;;4.55;2.47;;;;;;;;;;4991326;28;20482;-70
2022/10/17 12:08:59;;;;;;;5.90;2.05;;;;;;;;;;4949427;28;20042;-71
2022/10/17 12:11:57;;;;;;;5.40;2.08;;;;;;;;;;4987948;28;20042;-70
2022/10/17 12:14:39;;;;;;;7.05;2.30;;;;;;;;;;4987745;28;20054;-70
2022/10/17 12:17:38;;;;;;;5.45;1.98;;;;;;;;;;4979942;28;20022;-70
2022/10/17 12:20:24;;;;;;;4.90;2.08;;;;;;;;;;4984266;28;20107;-69
2022/10/17 12:22:56;;;;;;;8.23;1.77;;;;;;;;;;4982666;28;20655;-72
2022/10/17 12:25:28;;;;;;;3.40;1.83;;;;;;;;;;4991363;28;20659;-71
2022/10/17 12:28:06;;;;;;;4.40;1.73;;;;;;;;;;4985126;28;20069;-71
2022/10/17 12:30:33;;;;;;;4.00;1.80;;;;;;;;;;4982383;28;20039;-71
2022/10/17 12:33:14;;;;;;;4.60;2.00;;;;;;;;;;4991894;28;20096;-70
2022/10/17 12:35:39;;;;;;;3.70;1.50;;;;;;;;;;4988920;28;20036;-70
2022/10/17 12:38:21;;;;;;;3.13;1.60;;;;;;;;;;4986818;28;20038;-71
2022/10/17 12:40:49;;;;;;;7.00;1.85;;;;;;;;;;4980245;28;20065;-71
2022/10/17 12:43:14;;;;;;;6.53;1.90;;;;;;;;;;4985984;28;20394;-71
2022/10/17 12:45:57;;;;;;;6.90;1.67;;;;;;;;;;4990349;28;20035;-70
2022/10/17 12:48:38;;;;;;;3.75;1.95;;;;;;;;;;4990358;28;20042;-71
2022/10/17 12:51:17;;;;;;;4.15;2.03;;;;;;;;;;4989239;28;20046;-70
2022/10/17 12:53:45;;;;;;;7.90;2.22;;;;;;;;;;4985312;28;20034;-70
2022/10/17 12:56:13;;;;;;;5.55;3.00;;;;;;;;;;4985786;28;20058;-70
2022/10/17 12:58:44;;;;;;;5.80;2.38;;;;;;;;;;4989249;28;20048;-70
2022/10/17 13:01:18;;;;;;;9.18;1.90;;;;;;;;;;4991258;28;20026;-70
2022/10/17 13:03:48;;;;;;;4.93;1.90;;;;;;;;;;4990864;28;20457;-71
2022/10/17 13:06:20;;;;;;;6.50;1.95;;;;;;;;;;4994893;28;20030;-70
2022/10/17 13:08:50;;;;;;;1.85;1.40;;;;;;;;;;4989738;28;20033;-70
2022/10/17 13:11:22;;;;;;;4.63;1.75;;;;;;;;;;4987965;28;20080;-70
2022/10/17 13:13:51;;;;;;;4.65;1.63;;;;;;;;;;4991643;28;20478;-70
2022/10/17 13:16:39;;;;;;;4.32;1.63;;;;;;;;;;4988247;28;20034;-70
2022/10/17 13:19:15;;;;;;;4.97;1.90;;;;;;;;;;4992271;28;20053;-69
2022/10/17 13:21:50;;;;;;;5.00;1.83;;;;;;;;;;4989458;28;20092;-70
2022/10/17 13:24:22;;;;;;;3.88;1.58;;;;;;;;;;4993710;28;20038;-71
2022/10/17 13:26:47;;;;;;;3.92;2.00;;;;;;;;;;4995446;28;20125;-71
2022/10/17 13:29:14;;;;;;;5.35;1.83;;;;;;;;;;4992138;28;20105;-71
2022/10/17 13:31:43;;;;;;;4.10;1.80;;;;;;;;;;4989311;28;20110;-72
2022/10/17 13:34:20;;;;;;;4.97;1.75;;;;;;;;;;4990026;28;20505;-71
2022/10/17 13:36:49;;;;;;;5.65;1.80;;;;;;;;;;4987799;28;20101;-70
2022/10/17 13:39:18;;;;;;;5.88;1.80;;;;;;;;;;4978990;28;20093;-70
2022/10/17 13:41:43;;;;;;;6.18;1.83;;;;;;;;;;4988783;28;20114;-70
2022/10/17 13:44:27;;;;;;;4.82;1.80;;;;;;;;;;4992352;28;20116;-70
2022/10/17 13:46:52;;;;;;;5.88;1.65;;;;;;;;;;4992253;28;20038;-70
2022/10/17 13:49:39;;;;;;;4.22;1.73;;;;;;;;;;4991925;28;20061;-70
2022/10/17 13:52:06;;;;;;;4.53;1.67;;;;;;;;;;4991141;28;20414;-70
2022/10/17 13:54:33;;;;;;;5.15;1.70;;;;;;;;;;4986996;28;20099;-70
2022/10/17 13:57:00;;;;;;;6.78;1.73;;;;;;;;;;4981619;28;20449;-70
2022/10/17 13:59:36;;;;;;;6.18;2.05;;;;;;;;;;4994072;28;20040;-70
2022/10/17 14:02:02;;;;;;;6.05;2.03;;;;;;;;;;4987299;28;20050;-70
2022/10/17 14:04:27;;;;;;;5.95;1.80;;;;;;;;;;4988220;28;20050;-70
2022/10/17 14:06:53;;;;;;;5.15;1.95;;;;;;;;;;4990393;28;20047;-70
2022/10/17 14:09:25;;;;;;;3.63;1.92;;;;;;;;;;4989202;28;20049;-70
2022/10/17 14:12:05;;;;;;;6.07;2.22;;;;;;;;;;4989560;28;20049;-70
2022/10/17 14:14:31;;;;;;;5.25;1.73;;;;;;;;;;4984765;28;20060;-71
2022/10/17 14:16:56;;;;;;;4.55;2.17;;;;;;;;;;4990276;28;20124;-70
2022/10/17 14:19:34;;;;;;;6.07;2.00;;;;;;;;;;4991912;28;20062;-71
2022/10/17 14:22:22;;;;;;;9.00;3.70;;;;;;;;;;4988568;28;20035;-70
2022/10/17 14:24:49;;;;;;;5.30;1.90;;;;;;;;;;4991758;28;20039;-70
2022/10/17 14:27:56;;;;;;;4.50;1.92;;;;;;;;;;4992846;28;20042;-70
2022/10/17 14:30:24;;;;;;;4.50;1.83;;;;;;;;;;4939749;28;20452;-70
2022/10/17 14:32:54;;;;;;;5.82;1.90;;;;;;;;;;4988901;28;20080;-70
2022/10/17 14:35:19;;;;;;;6.90;2.22;;;;;;;;;;4991646;28;20030;-70
2022/10/17 14:37:47;;;;;;;7.28;1.98;;;;;;;;;;4988802;28;20120;-70
2022/10/17 14:40:17;;;;;;;7.90;2.30;;;;;;;;;;4987896;28;20042;-70
2022/10/17 14:42:42;;;;;;;8.55;2.00;;;;;;;;;;4988380;28;20026;-70
2022/10/17 14:45:13;;;;;;;11.52;2.30;;;;;;;;;;4988796;28;20108;-70
2022/10/17 14:47:40;;;;;;;7.40;2.53;;;;;;;;;;4989593;28;20026;-70
2022/10/17 14:50:11;;;;;;;6.95;2.00;;;;;;;;;;4989952;28;20030;-70
2022/10/17 14:52:38;;;;;;;6.60;2.20;;;;;;;;;;4989830;28;20073;-70
2022/10/17 14:55:23;;;;;;;3.67;1.90;;;;;;;;;;4990886;28;20538;-70
2022/10/17 14:57:49;;;;;;;5.78;2.05;;;;;;;;;;4991027;28;20124;-71
2022/10/17 15:00:16;;;;;;;6.63;2.08;;;;;;;;;;4992254;28;20154;-71
2022/10/17 15:02:43;;;;;;;5.45;1.80;;;;;;;;;;4990929;28;20026;-69